createdAt,value
2022-09-11T00:01:27.279Z,100593.00
2022-09-11T00:03:57.325Z,100593.94
2022-09-11T00:06:29.841Z,100587.94
2022-09-11T00:09:03.461Z,100594.00
2022-09-11T00:11:40.951Z,100584.91
2022-09-11T00:14:10.178Z,100588.47
2022-09-11T00:16:39.738Z,100590.16
2022-09-11T00:19:10.240Z,100590.41
2022-09-11T00:21:36.699Z,100586.31
2022-09-11T00:24:03.914Z,100573.56
2022-09-11T00:26:30.310Z,100583.75
2022-09-11T00:28:57.256Z,100582.22
2022-09-11T00:31:27.826Z,100592.25
2022-09-11T00:33:55.073Z,100588.44
2022-09-11T00:36:24.424Z,100591.56
2022-09-11T00:38:51.397Z,100583.34
2022-09-11T00:41:21.738Z,100584.34
2022-09-11T00:43:59.912Z,100592.31
2022-09-11T00:46:41.959Z,100594.09
2022-09-11T00:49:30.505Z,100600.69
2022-09-11T00:52:02.514Z,100592.41
2022-09-11T00:54:33.431Z,100598.97
2022-09-11T00:57:03.100Z,100595.78
2022-09-11T00:59:32.168Z,100594.16
2022-09-11T01:01:58.818Z,100596.94
2022-09-11T01:04:25.687Z,100594.88
2022-09-11T01:06:56.471Z,100596.25
2022-09-11T01:09:25.825Z,100587.88
2022-09-11T01:12:12.554Z,100596.84
2022-09-11T01:14:53.005Z,100591.00
2022-09-11T01:17:34.356Z,100596.56
2022-09-11T01:20:12.970Z,100595.16
2022-09-11T01:22:57.616Z,100595.59
2022-09-11T01:25:54.687Z,100596.56
2022-09-11T01:28:28.722Z,100600.28
2022-09-11T01:31:02.455Z,100602.97
2022-09-11T01:33:46.470Z,100608.03
2022-09-11T01:36:25.631Z,100608.19
2022-09-11T01:39:02.218Z,100608.03
2022-09-11T01:41:34.670Z,100607.91
2022-09-11T01:44:18.595Z,100613.44
2022-09-11T01:46:49.812Z,100617.56
2022-09-11T01:49:42.416Z,100615.66
2022-09-11T01:52:12.877Z,100616.41
2022-09-11T01:54:44.329Z,100611.91
2022-09-11T01:57:29.502Z,100618.75
2022-09-11T02:00:01.010Z,100621.84
2022-09-11T02:02:38.379Z,100621.84
2022-09-11T02:05:15.557Z,100625.38
2022-09-11T02:07:58.128Z,100620.44
2022-09-11T02:10:51.922Z,100628.66
2022-09-11T02:13:27.834Z,100636.25
2022-09-11T02:15:58.286Z,100645.03
2022-09-11T02:18:47.446Z,100645.25
2022-09-11T02:21:13.880Z,100646.50
2022-09-11T02:23:40.553Z,100641.88
2022-09-11T02:26:10.554Z,100647.41
2022-09-11T02:28:37.344Z,100645.88
2022-09-11T02:31:04.127Z,100655.69
2022-09-11T02:33:37.688Z,100655.00
2022-09-11T02:36:44.893Z,100660.75
2022-09-11T02:39:29.589Z,100657.22
2022-09-11T02:42:18.934Z,100666.13
2022-09-11T02:44:57.415Z,100661.31
2022-09-11T02:47:57.513Z,100665.13
2022-09-11T02:50:54.824Z,100664.63
2022-09-11T02:53:33.100Z,100667.19
2022-09-11T02:56:14.665Z,100665.59
2022-09-11T02:58:47.986Z,100672.81
2022-09-11T03:01:14.524Z,100674.56
2022-09-11T03:03:45.779Z,100669.19
2022-09-11T03:06:17.028Z,100677.38
2022-09-11T03:08:43.473Z,100676.31
2022-09-11T03:11:10.698Z,100673.59
2022-09-11T03:13:38.182Z,100678.97
2022-09-11T03:16:05.166Z,100680.66
2022-09-11T03:18:31.924Z,100685.28
2022-09-11T03:20:58.403Z,100689.25
2022-09-11T03:23:25.271Z,100696.75
2022-09-11T03:25:51.663Z,100694.44
2022-09-11T03:28:18.193Z,100691.34
2022-09-11T03:30:44.613Z,100699.69
2022-09-11T03:33:11.372Z,100707.81
2022-09-11T03:35:38.424Z,100703.63
2022-09-11T03:38:04.863Z,100706.81
2022-09-11T03:40:31.269Z,100702.88
2022-09-11T03:42:59.511Z,100709.44
2022-09-11T03:45:26.032Z,100703.97
2022-09-11T03:47:53.680Z,100704.56
2022-09-11T03:50:20.120Z,100698.44
2022-09-11T03:52:46.591Z,100699.34
2022-09-11T03:55:13.067Z,100703.44
2022-09-11T03:57:39.475Z,100703.94
2022-09-11T04:00:06.835Z,100717.00
2022-09-11T04:02:33.251Z,100717.06
2022-09-11T04:04:59.657Z,100723.34
2022-09-11T04:07:26.036Z,100723.16
2022-09-11T04:09:52.430Z,100732.03
2022-09-11T04:12:19.471Z,100737.00
2022-09-11T04:14:45.899Z,100735.91
2022-09-11T04:17:12.479Z,100739.69
2022-09-11T04:19:38.853Z,100735.28
2022-09-11T04:22:05.251Z,100735.22
2022-09-11T04:24:31.943Z,100742.47
2022-09-11T04:27:01.066Z,100746.88
2022-09-11T04:29:28.495Z,100746.13
2022-09-11T04:31:56.115Z,100751.09
2022-09-11T04:34:22.554Z,100752.56
2022-09-11T04:36:48.970Z,100749.44
2022-09-11T04:39:15.437Z,100759.38
2022-09-11T04:41:41.832Z,100761.81
2022-09-11T04:44:08.333Z,100753.47
2022-09-11T04:46:34.713Z,100752.91
2022-09-11T04:49:02.213Z,100749.88
2022-09-11T04:51:32.054Z,100757.59
2022-09-11T04:53:59.756Z,100763.69
2022-09-11T04:56:31.596Z,100761.66
2022-09-11T04:59:05.579Z,100762.09
2022-09-11T05:01:34.023Z,100767.03
2022-09-11T05:04:01.598Z,100762.78
2022-09-11T05:06:30.194Z,100769.00
2022-09-11T05:09:01.358Z,100765.41
2022-09-11T05:11:27.755Z,100765.25
2022-09-11T05:13:54.143Z,100768.75
2022-09-11T05:16:20.535Z,100771.38
2022-09-11T05:18:52.461Z,100776.31
2022-09-11T05:21:22.407Z,100775.31
2022-09-11T05:23:51.354Z,100783.78
2022-09-11T05:26:21.087Z,100790.00
2022-09-11T05:28:47.768Z,100785.41
2022-09-11T05:31:18.402Z,100789.81
2022-09-11T05:33:45.959Z,100786.38
2022-09-11T05:36:14.083Z,100786.50
2022-09-11T05:38:40.974Z,100792.03
2022-09-11T05:41:11.314Z,100794.44
2022-09-11T05:43:39.236Z,100794.50
2022-09-11T05:46:07.846Z,100793.06
2022-09-11T05:48:36.854Z,100803.44
2022-09-11T05:51:09.602Z,100810.16
2022-09-11T05:53:37.836Z,100804.38
2022-09-11T05:56:08.328Z,100821.41
2022-09-11T05:58:34.851Z,100817.50
2022-09-11T06:01:09.930Z,100827.03
2022-09-11T06:03:37.089Z,100830.56
2022-09-11T06:06:05.745Z,100829.34
2022-09-11T06:08:34.425Z,100832.19
2022-09-11T06:11:02.656Z,100833.03
2022-09-11T06:13:31.436Z,100835.66
2022-09-11T06:15:58.117Z,100833.78
2022-09-11T06:18:24.544Z,100835.63
2022-09-11T06:21:09.509Z,100847.56
2022-09-11T06:23:37.229Z,100842.34
2022-09-11T06:26:11.884Z,100843.44
2022-09-11T06:28:40.912Z,100844.56
2022-09-11T06:31:11.200Z,100853.94
2022-09-11T06:33:39.879Z,100858.06
2022-09-11T06:36:10.521Z,100854.13
2022-09-11T06:38:38.222Z,100862.34
2022-09-11T06:41:06.785Z,100865.41
2022-09-11T06:43:33.519Z,100856.63
2022-09-11T06:46:08.188Z,100858.69
2022-09-11T06:48:34.902Z,100873.81
2022-09-11T06:51:05.959Z,100880.63
2022-09-11T06:53:33.025Z,100875.81
2022-09-11T06:56:01.252Z,100882.69
2022-09-11T06:58:29.237Z,100889.44
2022-09-11T07:00:58.077Z,100887.22
2022-09-11T07:03:24.572Z,100892.28
2022-09-11T07:05:50.988Z,100887.94
2022-09-11T07:08:19.773Z,100885.84
2022-09-11T07:10:48.223Z,100888.84
2022-09-11T07:13:15.041Z,100887.69
2022-09-11T07:15:42.371Z,100885.53
2022-09-11T07:18:08.905Z,100890.38
2022-09-11T07:20:35.375Z,100894.31
2022-09-11T07:23:01.769Z,100898.59
2022-09-11T07:25:28.192Z,100886.53
2022-09-11T07:27:54.936Z,100894.38
2022-09-11T07:30:21.856Z,100900.38
2022-09-11T07:32:49.815Z,100898.38
2022-09-11T07:35:21.365Z,100896.31
2022-09-11T07:37:50.827Z,100899.28
2022-09-11T07:40:17.557Z,100909.50
2022-09-11T07:42:44.022Z,100912.63
2022-09-11T07:45:10.798Z,100914.91
2022-09-11T07:47:38.475Z,100907.38
2022-09-11T07:50:05.824Z,100907.16
2022-09-11T07:52:32.657Z,100914.06
2022-09-11T07:55:01.295Z,100916.75
2022-09-11T07:57:30.091Z,100913.81
2022-09-11T07:59:56.693Z,100912.16
2022-09-11T08:02:23.189Z,100918.66
2022-09-11T08:04:51.342Z,100915.38
2022-09-11T08:07:17.838Z,100921.00
2022-09-11T08:09:44.250Z,100922.84
2022-09-11T08:12:11.230Z,100922.34
2022-09-11T08:14:37.912Z,100926.13
2022-09-11T08:17:04.527Z,100924.13
2022-09-11T08:19:30.938Z,100926.81
2022-09-11T08:22:00.307Z,100929.75
2022-09-11T08:24:27.368Z,100936.13
2022-09-11T08:26:53.789Z,100944.72
2022-09-11T08:29:20.231Z,100946.53
2022-09-11T08:31:46.707Z,100946.38
2022-09-11T08:34:13.241Z,100947.13
2022-09-11T08:36:39.725Z,100960.28
2022-09-11T08:39:06.733Z,100956.81
2022-09-11T08:41:57.136Z,100953.88
2022-09-11T08:44:30.981Z,100955.66
2022-09-11T08:47:06.540Z,100958.59
2022-09-11T08:49:43.917Z,100968.16
2022-09-11T08:52:15.594Z,100964.44
2022-09-11T08:54:43.219Z,100961.63
2022-09-11T08:57:18.482Z,100963.63
2022-09-11T08:59:50.048Z,100969.22
2022-09-11T09:02:47.286Z,100965.72
2022-09-11T09:05:25.330Z,100966.03
2022-09-11T09:08:01.556Z,100980.19
2022-09-11T09:10:31.147Z,100972.97
2022-09-11T09:12:57.480Z,100978.63
2022-09-11T09:15:35.120Z,100980.88
2022-09-11T09:18:13.461Z,100979.69
2022-09-11T09:20:47.436Z,100977.75
2022-09-11T09:23:20.994Z,100979.34
2022-09-11T09:25:49.270Z,100981.63
2022-09-11T09:28:34.834Z,100986.84
2022-09-11T09:31:07.447Z,100994.81
2022-09-11T09:33:38.826Z,101001.00
2022-09-11T09:36:27.228Z,100997.19
2022-09-11T09:38:54.066Z,100999.50
2022-09-11T09:41:20.541Z,100988.88
2022-09-11T09:44:19.679Z,100992.19
2022-09-11T09:46:53.131Z,100997.91
2022-09-11T09:49:30.607Z,100992.28
2022-09-11T09:52:03.553Z,100990.72
2022-09-11T09:54:36.251Z,100994.81
2022-09-11T09:57:06.496Z,100999.66
2022-09-11T09:59:47.934Z,100999.16
2022-09-11T10:02:41.369Z,101000.06
2022-09-11T10:05:31.307Z,100988.16
2022-09-11T10:07:59.351Z,100975.66
2022-09-11T10:10:34.843Z,100990.06
2022-09-11T10:13:18.588Z,100984.13
2022-09-11T10:15:49.139Z,100992.78
2022-09-11T10:18:34.507Z,100991.38
2022-09-11T10:21:12.996Z,100988.69
2022-09-11T10:23:58.645Z,100992.63
2022-09-11T10:26:50.875Z,100994.19
2022-09-11T10:29:30.138Z,100993.53
2022-09-11T10:31:59.325Z,100986.09
2022-09-11T10:34:28.197Z,100987.63
2022-09-11T10:37:14.825Z,100986.41
2022-09-11T10:39:44.189Z,100987.69
2022-09-11T10:42:16.776Z,100986.13
2022-09-11T10:44:45.281Z,100994.31
2022-09-11T10:47:20.614Z,100982.22
2022-09-11T10:49:47.763Z,100993.19
2022-09-11T10:52:14.109Z,100993.84
2022-09-11T10:55:06.086Z,100992.16
2022-09-11T10:57:45.750Z,100994.47
2022-09-11T11:00:15.990Z,101003.13
2022-09-11T11:03:00.783Z,100994.09
2022-09-11T11:05:34.884Z,100993.44
2022-09-11T11:08:04.219Z,100997.81
2022-09-11T11:10:36.676Z,101003.88
2022-09-11T11:13:33.996Z,100994.31
2022-09-11T11:16:21.207Z,101004.22
2022-09-11T11:18:57.370Z,101005.03
2022-09-11T11:21:45.107Z,101002.94
2022-09-11T11:24:29.698Z,101010.16
2022-09-11T11:27:08.192Z,101004.75
2022-09-11T11:29:57.440Z,101008.81
2022-09-11T11:32:30.318Z,100999.78
2022-09-11T11:35:20.915Z,101007.69
2022-09-11T11:37:49.994Z,101012.84
2022-09-11T11:40:32.012Z,101012.03
2022-09-11T11:43:03.455Z,101004.22
2022-09-11T11:45:37.340Z,101007.94
2022-09-11T11:48:16.025Z,101002.50
2022-09-11T11:50:47.330Z,101002.91
2022-09-11T11:53:31.285Z,101001.28
2022-09-11T11:56:04.704Z,101003.28
2022-09-11T11:58:52.351Z,101001.50
2022-09-11T12:01:34.657Z,101001.22
2022-09-11T12:04:12.322Z,100998.56
2022-09-11T12:06:38.888Z,101008.38
2022-09-11T12:09:08.352Z,101006.69
2022-09-11T12:11:35.744Z,101002.63
2022-09-11T12:14:03.084Z,101003.34
2022-09-11T12:16:34.650Z,100995.09
2022-09-11T12:19:01.291Z,100997.56
2022-09-11T12:21:31.431Z,100991.00
2022-09-11T12:23:57.776Z,100988.69
2022-09-11T12:26:25.796Z,100994.47
2022-09-11T12:29:14.236Z,100996.91
2022-09-11T12:31:49.827Z,100995.97
2022-09-11T12:34:24.895Z,100996.66
2022-09-11T12:37:03.535Z,100996.03
2022-09-11T12:39:34.747Z,100987.53
2022-09-11T12:42:39.967Z,100993.19
2022-09-11T12:45:30.520Z,101002.59
2022-09-11T12:48:04.855Z,100993.63
2022-09-11T12:50:31.877Z,100991.38
2022-09-11T12:53:02.335Z,100991.38
2022-09-11T12:55:34.610Z,100988.59
2022-09-11T12:58:06.645Z,100994.19
2022-09-11T13:00:38.326Z,100989.34
2022-09-11T13:03:08.383Z,100986.19
2022-09-11T13:05:38.434Z,100984.25
2022-09-11T13:08:16.142Z,100980.31
2022-09-11T13:10:42.979Z,100982.38
2022-09-11T13:13:35.676Z,100978.44
2022-09-11T13:16:17.445Z,100979.75
2022-09-11T13:18:44.017Z,100971.56
2022-09-11T13:21:10.574Z,100972.22
2022-09-11T13:23:37.844Z,100967.13
2022-09-11T13:26:08.009Z,100970.16
2022-09-11T13:28:45.605Z,100974.13
2022-09-11T13:31:19.984Z,100962.06
2022-09-11T13:33:51.636Z,100968.91
2022-09-11T13:36:21.961Z,100960.13
2022-09-11T13:38:56.478Z,100967.41
2022-09-11T13:41:33.013Z,100972.00
2022-09-11T13:44:01.472Z,100956.91
2022-09-11T13:46:31.212Z,100958.06
2022-09-11T13:49:18.589Z,100959.50
2022-09-11T13:51:47.240Z,100955.03
2022-09-11T13:54:49.262Z,100953.53
2022-09-11T13:57:28.111Z,100954.75
2022-09-11T13:59:58.672Z,100956.56
2022-09-11T14:02:45.665Z,100951.63
2022-09-11T14:05:27.038Z,100947.19
2022-09-11T14:08:02.378Z,100953.22
2022-09-11T14:10:32.255Z,100951.31
2022-09-11T14:13:09.214Z,100952.50
2022-09-11T14:15:43.154Z,100941.75
2022-09-11T14:18:21.050Z,100947.25
2022-09-11T14:20:47.608Z,100948.69
2022-09-11T14:23:21.609Z,100943.03
2022-09-11T14:26:15.903Z,100941.47
2022-09-11T14:28:46.661Z,100950.53
2022-09-11T14:31:26.908Z,100947.81
2022-09-11T14:34:22.962Z,100948.66
2022-09-11T14:37:07.862Z,100945.81
2022-09-11T14:39:42.048Z,100938.66
2022-09-11T14:42:13.235Z,100944.34
2022-09-11T14:44:41.509Z,100942.03
2022-09-11T14:47:28.848Z,100928.81
2022-09-11T14:49:57.411Z,100934.81
2022-09-11T14:52:28.680Z,100937.09
2022-09-11T14:54:56.512Z,100929.88
2022-09-11T14:57:32.507Z,100930.13
2022-09-11T15:00:01.999Z,100930.63
2022-09-11T15:02:29.218Z,100927.78
2022-09-11T15:04:57.456Z,100926.16
2022-09-11T15:07:25.030Z,100932.81
2022-09-11T15:09:54.949Z,100931.38
2022-09-11T15:12:22.614Z,100937.47
2022-09-11T15:14:58.436Z,100933.94
2022-09-11T15:17:30.442Z,100942.25
2022-09-11T15:20:00.242Z,100932.44
2022-09-11T15:22:27.133Z,100930.38
2022-09-11T15:24:53.772Z,100925.81
2022-09-11T15:27:20.226Z,100923.00
2022-09-11T15:29:46.641Z,100925.72
2022-09-11T15:32:14.302Z,100921.72
2022-09-11T15:34:42.330Z,100922.94
2022-09-11T15:37:08.918Z,100927.88
2022-09-11T15:39:35.491Z,100922.16
2022-09-11T15:42:02.022Z,100924.97
2022-09-11T15:44:29.364Z,100922.22
2022-09-11T15:46:58.432Z,100918.78
2022-09-11T15:49:28.019Z,100921.31
2022-09-11T15:51:54.899Z,100922.91
2022-09-11T15:54:23.341Z,100921.56
2022-09-11T15:56:51.020Z,100915.66
2022-09-11T15:59:17.673Z,100918.53
2022-09-11T16:01:45.035Z,100914.75
2022-09-11T16:04:15.035Z,100917.75
2022-09-11T16:06:45.134Z,100921.22
2022-09-11T16:09:14.546Z,100911.44
2022-09-11T16:11:40.989Z,100916.00
2022-09-11T16:14:08.802Z,100908.69
2022-09-11T16:16:35.458Z,100915.72
2022-09-11T16:19:01.991Z,100910.03
2022-09-11T16:21:28.877Z,100917.72
2022-09-11T16:24:00.621Z,100917.09
2022-09-11T16:26:28.951Z,100920.22
2022-09-11T16:28:55.438Z,100914.09
2022-09-11T16:31:21.939Z,100913.78
2022-09-11T16:33:49.920Z,100908.63
2022-09-11T16:36:18.804Z,100903.22
2022-09-11T16:38:46.228Z,100899.38
2022-09-11T16:41:20.077Z,100905.44
2022-09-11T16:43:52.249Z,100907.53
2022-09-11T16:46:21.114Z,100902.66
2022-09-11T16:48:51.886Z,100896.63
2022-09-11T16:51:20.982Z,100894.56
2022-09-11T16:53:47.897Z,100901.13
2022-09-11T16:56:17.260Z,100904.66
2022-09-11T16:58:44.301Z,100895.50
2022-09-11T17:01:14.767Z,100896.28
2022-09-11T17:03:43.485Z,100902.88
2022-09-11T17:06:10.848Z,100898.50
2022-09-11T17:08:39.107Z,100891.91
2022-09-11T17:11:09.650Z,100896.16
2022-09-11T17:13:36.531Z,100904.06
2022-09-11T17:16:23.855Z,100889.84
2022-09-11T17:18:56.620Z,100893.88
2022-09-11T17:21:24.766Z,100893.97
2022-09-11T17:23:52.946Z,100899.06
2022-09-11T17:26:19.945Z,100890.91
2022-09-11T17:28:48.723Z,100887.31
2022-09-11T17:31:16.592Z,100898.09
2022-09-11T17:33:45.305Z,100896.34
2022-09-11T17:36:14.669Z,100891.50
2022-09-11T17:38:41.283Z,100894.03
2022-09-11T17:41:08.918Z,100892.13
2022-09-11T17:43:36.753Z,100892.69
2022-09-11T17:46:06.333Z,100897.75
2022-09-11T17:48:32.910Z,100896.06
2022-09-11T17:51:01.336Z,100899.31
2022-09-11T17:53:33.401Z,100898.44
2022-09-11T17:56:04.514Z,100907.38
2022-09-11T17:58:30.959Z,100911.00
2022-09-11T18:01:00.556Z,100918.09
2022-09-11T18:03:28.758Z,100914.94
2022-09-11T18:05:55.827Z,100925.50
2022-09-11T18:08:22.418Z,100921.56
2022-09-11T18:10:51.201Z,100926.69
2022-09-11T18:13:17.663Z,100928.09
2022-09-11T18:15:44.103Z,100929.28
2022-09-11T18:18:10.496Z,100921.63
2022-09-11T18:20:36.922Z,100927.47
2022-09-11T18:23:03.332Z,100942.56
2022-09-11T18:25:30.084Z,100938.50
2022-09-11T18:27:56.493Z,100937.13
2022-09-11T18:30:22.914Z,100938.88
2022-09-11T18:32:49.978Z,100940.84
2022-09-11T18:35:17.344Z,100947.81
2022-09-11T18:37:43.770Z,100948.56
2022-09-11T18:40:10.220Z,100947.28
2022-09-11T18:42:36.661Z,100955.22
2022-09-11T18:45:03.262Z,100947.72
2022-09-11T18:47:30.544Z,100945.41
2022-09-11T18:49:59.599Z,100948.22
2022-09-11T18:52:26.473Z,100949.03
2022-09-11T18:54:52.882Z,100947.47
2022-09-11T18:57:19.350Z,100953.00
2022-09-11T18:59:45.698Z,100952.75
2022-09-11T19:02:12.449Z,100956.03
2022-09-11T19:04:39.160Z,100954.56
2022-09-11T19:07:05.811Z,100945.69
2022-09-11T19:09:32.234Z,100947.81
2022-09-11T19:12:00.238Z,100953.88
2022-09-11T19:14:27.666Z,100957.25
2022-09-11T19:16:54.163Z,100951.06
2022-09-11T19:19:20.666Z,100963.03
2022-09-11T19:21:47.703Z,100960.34
2022-09-11T19:24:14.170Z,100962.06
2022-09-11T19:26:43.465Z,100957.03
2022-09-11T19:29:10.951Z,100970.47
2022-09-11T19:31:39.086Z,100980.91
2022-09-11T19:34:08.231Z,100971.94
2022-09-11T19:36:35.952Z,100971.00
2022-09-11T19:39:03.535Z,100971.28
2022-09-11T19:41:33.176Z,100980.19
2022-09-11T19:44:02.149Z,100976.94
2022-09-11T19:46:30.451Z,100979.31
2022-09-11T19:49:00.729Z,100971.22
2022-09-11T19:51:30.189Z,100974.06
2022-09-11T19:54:00.352Z,100977.91
2022-09-11T19:56:27.974Z,100977.06
2022-09-11T19:58:56.048Z,100976.91
2022-09-11T20:01:24.353Z,100979.91
2022-09-11T20:03:55.659Z,100983.34
2022-09-11T20:06:26.038Z,100984.22
2022-09-11T20:09:07.967Z,100984.66
2022-09-11T20:11:40.229Z,100981.59
2022-09-11T20:14:06.835Z,100978.00
2022-09-11T20:16:33.644Z,100987.50
2022-09-11T20:19:09.249Z,100983.00
2022-09-11T20:21:36.152Z,100983.31
2022-09-11T20:24:04.756Z,100987.66
2022-09-11T20:26:32.352Z,100988.13
2022-09-11T20:29:01.124Z,100987.38
2022-09-11T20:31:31.636Z,100982.72
2022-09-11T20:34:00.484Z,100983.59
2022-09-11T20:36:29.906Z,100987.91
2022-09-11T20:39:00.882Z,100982.09
2022-09-11T20:41:29.992Z,100983.16
2022-09-11T20:43:58.041Z,100983.84
2022-09-11T20:46:24.586Z,100983.16
2022-09-11T20:48:52.876Z,100989.38
2022-09-11T20:51:21.771Z,100999.28
2022-09-11T20:53:48.966Z,100988.38
2022-09-11T20:56:18.114Z,100984.97
2022-09-11T20:58:44.847Z,100985.22
2022-09-11T21:01:14.374Z,100982.94
2022-09-11T21:03:49.682Z,100992.47
2022-09-11T21:06:16.204Z,100984.06
2022-09-11T21:08:44.255Z,100995.81
2022-09-11T21:11:12.042Z,100999.41
2022-09-11T21:13:41.064Z,100987.34
2022-09-11T21:16:10.128Z,100988.19
2022-09-11T21:18:38.580Z,100989.75
2022-09-11T21:21:06.049Z,100991.44
2022-09-11T21:23:32.591Z,100991.69
2022-09-11T21:25:59.092Z,100982.31
2022-09-11T21:28:25.512Z,100984.16
2022-09-11T21:30:52.162Z,100984.72
2022-09-11T21:33:18.919Z,100989.38
2022-09-11T21:35:52.302Z,100986.56
2022-09-11T21:38:20.836Z,100978.34
2022-09-11T21:40:47.761Z,100983.41
2022-09-11T21:43:14.296Z,100985.09
2022-09-11T21:45:41.037Z,100976.63
2022-09-11T21:48:09.062Z,100983.09
2022-09-11T21:50:37.287Z,100982.91
2022-09-11T21:53:04.982Z,100983.88
2022-09-11T21:55:31.508Z,100972.78
2022-09-11T21:57:59.245Z,100976.78
2022-09-11T22:00:25.650Z,100976.09
2022-09-11T22:02:52.062Z,100975.44
2022-09-11T22:05:18.469Z,100982.53
2022-09-11T22:07:44.888Z,100972.03
2022-09-11T22:10:11.276Z,100967.03
2022-09-11T22:12:37.701Z,100970.16
2022-09-11T22:15:04.335Z,100964.78
2022-09-11T22:17:30.782Z,100965.16
2022-09-11T22:19:57.182Z,100967.53
2022-09-11T22:22:23.790Z,100959.34
2022-09-11T22:24:50.223Z,100965.47
2022-09-11T22:27:16.589Z,100968.63
2022-09-11T22:29:46.932Z,100965.47
2022-09-11T22:32:13.563Z,100966.59
2022-09-11T22:34:40.063Z,100967.69
2022-09-11T22:37:06.482Z,100967.00
2022-09-11T22:39:32.990Z,100967.50
2022-09-11T22:41:59.658Z,100966.19
2022-09-11T22:44:26.513Z,100972.69
2022-09-11T22:46:53.333Z,100971.81
2022-09-11T22:49:19.754Z,100968.69
2022-09-11T22:51:46.154Z,100968.56
2022-09-11T22:54:13.726Z,100967.22
2022-09-11T22:56:40.386Z,100973.59
2022-09-11T22:59:07.205Z,100962.75
2022-09-11T23:01:33.939Z,100966.28
2022-09-11T23:04:00.342Z,100959.56
2022-09-11T23:06:45.278Z,100963.38
2022-09-11T23:09:16.575Z,100954.84
2022-09-11T23:11:45.101Z,100962.06
2022-09-11T23:14:14.464Z,100952.19
2022-09-11T23:16:42.107Z,100944.72
2022-09-11T23:19:12.204Z,100946.06
2022-09-11T23:21:38.653Z,100949.16
2022-09-11T23:24:10.369Z,100946.34
2022-09-11T23:26:36.804Z,100951.22
2022-09-11T23:29:03.288Z,100955.59
2022-09-11T23:31:32.153Z,100961.47
2022-09-11T23:34:01.418Z,100961.97
2022-09-11T23:36:28.912Z,100961.25
2022-09-11T23:38:55.699Z,100968.19
2022-09-11T23:41:22.907Z,100969.03
2022-09-11T23:43:49.446Z,100967.34
2022-09-11T23:46:16.353Z,100960.28
2022-09-11T23:48:43.631Z,100963.22
2022-09-11T23:51:10.973Z,100964.19
2022-09-11T23:53:44.776Z,100969.31
2022-09-11T23:56:14.206Z,100966.38
2022-09-11T23:58:40.720Z,100963.72
